x

Diamond Shoals (41025) Wave Buoy

5:50 - Thu 27th Nov 2014 All times are EST. -5 hours from GMT.

  • Sig Wave height 5.9ft
  • Swell Direction
  • Peak Period 9s
  • Average Period 5s
  • Wind
    25mph, 31mph gusts
  • Ar Temp 53°f
  • Sea Pressure 1016.2mb
  • Diamond Shoals
  • Diamond Shoals

More Historic Weather Station data

Upgrade to MSW Pro to gain access to the past 30 days of data for over 8000 Wavebouys and Weather Stations around the globe.

Join Pro

Comparision Forecast

View Surf forecast
   
Qui 11/27 5:50 6ft 9s 5s 25 31 mph 1016.2mb 53f
4:50 5ft 10s 5s 22 27 mph 1014.7mb 55f
3:50 5.5ft 9s 5s 20 29 mph 1012.9mb 59f
2:50 5ft 9s 5s 22 29 mph 1012.3mb 61f
1:50 5ft 9s 6s 22 31 mph 1012.2mb 61f
12:50 4.5ft 9s 6s 11 18 mph 1013.3mb 60f
11:50 4.5ft 8s 6s 9 18 mph 1014.7mb 59f
10:50 5ft 8s 7s 13 18 mph 1016.3mb 58f
9:50 5ft 8s 7s  -  2 mph 1017.6mb 55f
8:50 5ft 9s 7s  -  2 mph 1018.3mb 54f
7:50 5ft 9s 6s  -  2 mph 1018.5mb 52f
6:50 5.5ft 9s 6s 2 9 mph 1018.7mb 50f
5:50 6ft 9s 6s 4 9 mph 1018.7mb 48f
4:50 6.5ft 8s 6s 11 18 mph 1018.6mb 47f
3:50 7.5ft 9s 7s 13 18 mph 1018.7mb 48f
2:50 7.5ft 9s 6s 16 20 mph 1018.8mb 47f
1:50 8ft 9s 6s 18 25 mph 1018.2mb 47f
12:50 8ft 9s 6s 18 22 mph 1017.9mb 47f
Qua 11/26 11:50 9.5ft 10s 6s 20 27 mph 1017.6mb 48f
10:50 9.5ft 8s 6s 20 27 mph 1017.4mb 48f
9:50 10ft 9s 7s 20 27 mph 1016.4mb 50f
8:50 10.5ft 8s 6s 22 27 mph 1016.1mb 50f
7:50 10ft 9s 6s 22 29 mph 1014.7mb 50f
6:50 10ft 9s 6s 25 29 mph 1013mb 51f
5:50 10ft 9s 6s 25 31 mph 1011.1mb 51f
4:50 9.5ft 8s 6s 27 36 mph 1009.7mb 52f
3:50 10.5ft 9s 7s 22 27 mph 1007.9mb 57f
2:50 12ft 9s 7s 18 25 mph 1006.7mb 60f
1:50 12ft 8s 7s 16 20 mph 1005.8mb 62f
12:50 13.5ft 8s 7s 29 36 mph 1003.4mb 73f
11:50  -   -   -  27 31 mph 1004.2mb 76f
10:50 12.5ft 8s 7s 29 34 mph 1006.2mb 76f
9:50 11ft 8s 6s 29 34 mph 1007mb 76f
8:50 11ft 7s 6s 27 31 mph 1007.1mb 76f
7:50 10ft 8s 6s 29 36 mph 1007.7mb 75f
6:50 7ft 8s 5s 29 40 mph 1008.2mb 74f
5:50 5ft 8s 6s 22 27 mph 1009.3mb 74f
4:50 4.5ft 9s 6s 20 25 mph 1009.3mb 70f
3:50 5ft 7s 6s 11 13 mph 1011.8mb 69f
2:50 5ft 9s 6s 7
mph
1013.2mb 69f
1:50 5ft 9s 6s 9 13 mph 1014.7mb 69f
12:50 4.5ft 8s 6s 4 7 mph 1015.9mb 69f
Ter 11/25 11:50 4.5ft 8s 6s 13 16 mph 1016.7mb 69f
10:50 5ft 9s 6s  -  4 mph 1017.8mb 68f
9:50 5ft 9s 7s 13 16 mph 1017.6mb 65f
8:50 4.5ft 9s 6s 9 13 mph 1018.2mb 67f
7:50 5ft 8s 6s  -  4 mph 1018.7mb 67f
6:50 5ft 8s 7s 2 4 mph 1018.1mb 67f
5:50 5ft 7s 7s 4 7 mph 1017.5mb 67f
4:50 5ft 8s 7s  -  2 mph 1017.4mb 66f
3:50 5ft 8s 7s 7 11 mph 1018.3mb 68f
2:50 4.5ft 8s 6s 2 7 mph 1017.5mb 67f
1:50 5ft 8s 6s 11 16 mph 1016.3mb 69f
12:50 4.5ft 9s 6s 7 11 mph 1016.4mb 68f
11:50 5.5ft 8s 6s 13 18 mph 1017mb 69f
10:50 5ft 9s 6s 18 20 mph 1017.3mb 71f
9:50 5.5ft 9s 6s 13 16 mph 1017.5mb 74f
8:50 5.5ft 9s 6s 7 13 mph 1017.3mb 74f
7:50 6ft 8s 6s 9 11 mph 1017mb 73f
6:50 5.5ft 9s 6s 11 16 mph 1016.5mb 72f
5:50 6ft 8s 6s 11 13 mph 1015.5mb 71f
4:50 6ft 9s 6s 16 20 mph 1015.8mb 73f
3:50 6ft 8s 6s 16 18 mph 1015.2mb 74f
2:50 7ft 8s 6s 16 20 mph 1015.6mb 74f
1:50 7ft 9s 6s 18 20 mph 1015.2mb 73f
12:50 6.5ft 8s 6s 18 22 mph 1015.1mb 73f
Seg 11/24 11:50 7ft 9s 6s 18 20 mph 1014.5mb 72f
10:50 7.5ft 9s 6s 20 27 mph 1014.1mb 73f
9:50 8ft 9s 6s 22 27 mph 1014.5mb 74f
8:50 7.5ft 10s 6s 22 27 mph 1013.8mb 75f
7:50 7.5ft 9s 7s 18 22 mph 1013.6mb 75f
6:50 7ft 9s 7s 13 16 mph 1013.3mb 75f
5:50 7ft 9s 6s 18 22 mph 1013mb 75f
4:50 7ft 10s 6s 18 22 mph 1012.4mb 75f
3:50 7ft 10s 6s 18 20 mph 1012.2mb 75f
2:50 8ft 9s 6s 16 18 mph 1012.2mb 75f
1:50 9ft 9s 7s 16 18 mph 1012.1mb 75f
12:50 9ft 10s 7s 18 22 mph 1012.5mb 76f
11:50 10ft 10s 7s 20 27 mph 1012.8mb 76f
10:50 9.5ft 9s 6s 22 29 mph 1012.8mb 76f
9:50 10ft 10s 7s 22 29 mph 1012.8mb 76f
8:50 10ft 10s 7s 25 29 mph 1012.4mb 76f
7:50 11ft 10s 7s 22 27 mph 1012.2mb 74f
6:50 10.5ft 9s 7s 20 27 mph 1011.9mb 74f
5:50 12ft 10s 7s 22 27 mph 1011.2mb 74f
4:50 14ft 9s 7s 27 34 mph 1010.4mb 75f
3:50 14.5ft 10s 7s 31 38 mph 1009.4mb 74f
2:50 12.5ft 9s 7s 36 47 mph 1008.8mb 70f
1:50 13.5ft 8s 7s 36 43 mph 1010.8mb 71f
12:50 11ft 8s 6s 34 43 mph 1010.4mb 72f